Latest Coastal Weather Observations for South Channel Island

IDV60701

Issued at 11:31 am EDT Thursday 15 November 2018 (issued every 10 minutes, with the page automatically refreshed every 10 minutes)

About coastal observations | Map of coastal stations | Coastal observations for VIC | Marine services | Other Formats
Station Details ID: 086344 Name: SOUTH CHANNEL ISLAND Lat: -38.31 Lon: 144.80 Height: 9.0 m
Data from the previous 72 hours. | See also: Recent months for locations in Victoria
Date/Time
EDT
Wind Sea
Height
m
Swell Vis
km
Cloud Weather Temp
°C
Press
hPa
Rain since
9am
mm
Dir  Spd
kts
Gust
kts
Height
m
Period
s
Dir
15/11:30am S 12 17 - - - - - - - - - -
15/11:00am S 13 15 - - - - - - - - - -
15/10:30am S 12 15 - - - - - - - - - -
15/10:00am S 12 16 - - - - - - - - - -
15/09:30am S 13 17 - - - - - - - - - -
15/09:00am S 14 16 - - - - - - - - - -
15/08:30am S 15 17 - - - - - - - - - -
15/08:00am S 14 17 - - - - - - - - - -
15/07:30am S 13 15 - - - - - - - - - -
15/07:00am S 17 20 - - - - - - - - - -
15/06:30am S 16 18 - - - - - - - - - -
15/06:00am SSW 16 18 - - - - - - - - - -
15/05:30am SSW 17 19 - - - - - - - - - -
15/05:00am SSW 18 20 - - - - - - - - - -
15/04:30am SSW 19 22 - - - - - - - - - -
15/04:00am SSW 20 24 - - - - - - - - - -
15/03:30am SSW 19 22 - - - - - - - - - -
15/03:00am SW 18 20 - - - - - - - - - -
15/02:30am SW 17 20 - - - - - - - - - -
15/02:00am SW 18 21 - - - - - - - - - -
15/01:30am SW 17 19 - - - - - - - - - -
15/01:00am SW 17 19 - - - - - - - - - -
15/12:30am SSW 17 21 - - - - - - - - - -
15/12:00am SSW 18 22 - - - - - - - - - -
 
Date/Time
EDT
Wind Sea
Height
m
Swell Vis
km
Cloud Weather Temp
°C
Press
hPa
Rain since
9am
mm
Dir  Spd
kts
Gust
kts
Height
m
Period
s
Dir
14/11:30pm SSW 18 20 - - - - - - - - - -
14/11:00pm SW 18 21 - - - - - - - - - -
14/10:30pm SSW 14 17 - - - - - - - - - -
14/10:00pm SSW 11 14 - - - - - - - - - -
14/09:30pm SSW 16 19 - - - - - - - - - -
14/09:00pm SSW 16 19 - - - - - - - - - -
14/08:30pm SSW 17 20 - - - - - - - - - -
14/08:00pm SSW 19 23 - - - - - - - - - -
14/07:30pm SSW 19 25 - - - - - - - - - -
14/07:00pm SSW 19 22 - - - - - - - - - -
14/06:30pm SSW 19 21 - - - - - - - - - -
14/06:00pm SSW 15 18 - - - - - - - - - -
14/05:30pm SSW 16 18 - - - - - - - - - -
14/05:00pm SSW 15 17 - - - - - - - - - -
14/04:30pm SSW 14 16 - - - - - - - - - -
14/04:00pm SSW 14 16 - - - - - - - - - -
14/03:30pm SSW 14 17 - - - - - - - - - -
14/03:00pm SSW 11 14 - - - - - - - - - -
14/02:30pm S 10 12 - - - - - - - - - -
14/02:00pm SSW 10 12 - - - - - - - - - -
14/01:30pm SSW 9 11 - - - - - - - - - -
14/01:00pm SSW 10 11 - - - - - - - - - -
14/12:30pm SSW 8 10 - - - - - - - - - -
14/12:00pm SSW 7 8 - - - - - - - - - -
14/11:30am SSW 10 11 - - - - - - - - - -
14/11:00am S 8 10 - - - - - - - - - -
14/10:30am S 9 14 - - - - - - - - - -
14/10:00am S 10 12 - - - - - - - - - -
14/09:30am SSW 12 15 - - - - - - - - - -
14/09:00am S 13 14 - - - - - - - - - -
14/08:30am SSW 14 16 - - - - - - - - - -
14/08:00am S 14 16 - - - - - - - - - -
14/07:30am SSW 15 17 - - - - - - - - - -
14/07:00am SSW 16 18 - - - - - - - - - -
14/06:30am SSW 15 17 - - - - - - - - - -
14/06:00am SSW 17 19 - - - - - - - - - -
14/05:30am SSW 9 12 - - - - - - - - - -
14/05:00am SSW 10 12 - - - - - - - - - -
14/04:30am SW 8 9 - - - - - - - - - -
14/04:00am SW 6 7 - - - - - - - - - -
14/03:30am SW 5 6 - - - - - - - - - -
14/03:00am SW 8 9 - - - - - - - - - -
14/02:30am SW 10 12 - - - - - - - - - -
14/02:00am SSW 10 13 - - - - - - - - - -
14/01:30am SSW 11 14 - - - - - - - - - -
14/01:00am SSW 11 13 - - - - - - - - - -
14/12:30am SSW 13 15 - - - - - - - - - -
14/12:00am SSW 14 16 - - - - - - - - - -
 
Date/Time
EDT
Wind Sea
Height
m
Swell Vis
km
Cloud Weather Temp
°C
Press
hPa
Rain since
9am
mm
Dir  Spd
kts
Gust
kts
Height
m
Period
s
Dir
13/11:30pm SSW 14 16 - - - - - - - - - -
13/11:00pm SW 17 21 - - - - - - - - - -
13/10:30pm SSW 19 22 - - - - - - - - - -
13/10:00pm SSW 17 19 - - - - - - - - - -
13/09:30pm SW 15 18 - - - - - - - - - -
13/09:00pm SSW 20 26 - - - - - - - - - -
13/08:46pm SW 19 27 - - - - - - - - - -
13/08:30pm SSW 14 17 - - - - - - - - - -
13/08:16pm SW 17 20 - - - - - - - - - -
13/08:00pm WSW 22 28 - - - - - - - - - -
13/07:56pm WSW 17 28 - - - - - - - - - -
13/07:30pm S 15 17 - - - - - - - - - -
13/07:00pm SSW 18 22 - - - - - - - - - -
13/06:30pm SW 21 26 - - - - - - - - - -
13/06:00pm SW 19 23 - - - - - - - - - -
13/05:30pm SW 15 18 - - - - - - - - - -
13/05:03pm NW 17 29 - - - - - - - - - -
13/05:00pm NNW 18 23 - - - - - - - - - -
13/04:58pm NNW 19 23 - - - - - - - - - -
13/04:30pm N 25 28 - - - - - - - - - -
13/04:00pm N 21 23 - - - - - - - - - -
13/03:30pm N 21 25 - - - - - - - - - -
13/03:00pm N 21 24 - - - - - - - - - -
13/02:30pm N 24 26 - - - - - - - - - -
13/02:00pm N 22 26 - - - - - - - - - -
13/01:30pm N 18 20 - - - - - - - - - -
13/01:00pm N 20 21 - - - - - - - - - -
13/12:30pm NNE 17 19 - - - - - - - - - -
13/12:00pm NNE 17 19 - - - - - - - - - -
13/11:30am NE 16 18 - - - - - - - - - -
13/11:00am NE 17 19 - - - - - - - - - -
13/10:30am NE 19 20 - - - - - - - - - -
13/10:00am NE 17 26 - - - - - - - - - -
13/09:55am NE 18 26 - - - - - - - - - -
13/09:30am NE 13 15 - - - - - - - - - -
13/09:00am NE 7 12 - - - - - - - - - -
13/08:30am NE 8 10 - - - - - - - - - -
13/08:00am NE 5 7 - - - - - - - - - -
13/07:30am N 4 5 - - - - - - - - - -
13/07:00am SW 2 6 - - - - - - - - - -
13/06:30am WNW 5 6 - - - - - - - - - -
13/06:00am NE 12 16 - - - - - - - - - -
13/05:30am ENE 13 14 - - - - - - - - - -
13/05:00am ENE 11 13 - - - - - - - - - -
13/04:30am ENE 11 12 - - - - - - - - - -
13/04:00am ENE 13 14 - - - - - - - - - -
13/03:30am ENE 11 15 - - - - - - - - - -
13/03:00am ENE 14 15 - - - - - - - - - -
13/02:30am ENE 16 17 - - - - - - - - - -
13/02:00am ENE 16 17 - - - - - - - - - -
13/01:30am ENE 17 18 - - - - - - - - - -
13/01:00am ENE 17 18 - - - - - - - - - -
13/12:30am ENE 17 19 - - - - - - - - - -
13/12:00am E 17 18 - - - - - - - - - -
 
Date/Time
EDT
Wind Sea
Height
m
Swell Vis
km
Cloud Weather Temp
°C
Press
hPa
Rain since
9am
mm
Dir  Spd
kts
Gust
kts
Height
m
Period
s
Dir
12/11:30pm ENE 19 20 - - - - - - - - - -
12/11:00pm ENE 17 19 - - - - - - - - - -
12/10:30pm ENE 17 18 - - - - - - - - - -
12/10:00pm ENE 17 18 - - - - - - - - - -
12/09:30pm ENE 17 18 - - - - - - - - - -
12/09:00pm ENE 18 19 - - - - - - - - - -
12/08:30pm ENE 18 19 - - - - - - - - - -
12/08:00pm ENE 17 17 - - - - - - - - - -
12/07:30pm ENE 16 17 - - - - - - - - - -
12/07:00pm ENE 15 16 - - - - - - - - - -
12/06:30pm ENE 15 16 - - - - - - - - - -
12/06:00pm NE 16 17 - - - - - - - - - -
12/05:30pm NE 16 17 - - - - - - - - - -
12/05:00pm ENE 14 14 - - - - - - - - - -
12/04:30pm ENE 12 14 - - - - - - - - - -
12/04:00pm ENE 11 12 - - - - - - - - - -
12/03:30pm ENE 10 11 - - - - - - - - - -
12/03:00pm E 8 9 - - - - - - - - - -
12/02:30pm E 6 7 - - - - - - - - - -
12/02:00pm N 3 4 - - - - - - - - - -
12/01:30pm CALM 0 0 - - - - - - - - - -
12/01:00pm N 3 4 - - - - - - - - - -
12/12:30pm N 3 4 - - - - - - - - - -
12/12:00pm NNE 3 3 - - - - - - - - - -

Other Formats:

Comma delimited format used in spreadsheet applications
http://www.bom.gov.au/fwo/IDV60701/IDV60701.94853.axf

JavaScript Object Notation format (JSON) in row-major order
http://www.bom.gov.au/fwo/IDV60701/IDV60701.94853.json